sensor_id;sensor_type;location;lat;lon;timestamp;temperature;humidity
8595;DHT22;4335;48.860;9.198;2024-01-16T00:00:31;0.50;99.90
8595;DHT22;4335;48.860;9.198;2024-01-16T00:03:05;0.40;99.90
8595;DHT22;4335;48.860;9.198;2024-01-16T00:05:32;0.40;99.90
8595;DHT22;4335;48.860;9.198;2024-01-16T00:08:03;0.40;99.90
8595;DHT22;4335;48.860;9.198;2024-01-16T00:10:33;0.40;99.90
8595;DHT22;4335;48.860;9.198;2024-01-16T00:13:12;0.40;99.90
8595;DHT22;4335;48.860;9.198;2024-01-16T00:15:39;0.40;99.90
8595;DHT22;4335;48.860;9.198;2024-01-16T00:18:07;0.40;99.90
8595;DHT22;4335;48.860;9.198;2024-01-16T00:20:35;0.40;99.90
8595;DHT22;4335;48.860;9.198;2024-01-16T00:23:02;0.40;99.90
8595;DHT22;4335;48.860;9.198;2024-01-16T00:25:33;0.40;99.90
8595;DHT22;4335;48.860;9.198;2024-01-16T00:28:06;0.40;99.90
8595;DHT22;4335;48.860;9.198;2024-01-16T00:30:35;0.30;99.90
8595;DHT22;4335;48.860;9.198;2024-01-16T00:33:03;0.30;99.90
8595;DHT22;4335;48.860;9.198;2024-01-16T00:35:33;0.20;99.90
8595;DHT22;4335;48.860;9.198;2024-01-16T00:38:00;0.20;99.90
8595;DHT22;4335;48.860;9.198;2024-01-16T00:40:28;0.20;99.90
8595;DHT22;4335;48.860;9.198;2024-01-16T00:42:55;0.20;99.90
8595;DHT22;4335;48.860;9.198;2024-01-16T00:45:25;0.10;99.90
8595;DHT22;4335;48.860;9.198;2024-01-16T00:48:09;0.20;99.90
8595;DHT22;4335;48.860;9.198;2024-01-16T00:50:42;0.20;99.90
8595;DHT22;4335;48.860;9.198;2024-01-16T00:53:12;0.20;99.90
8595;DHT22;4335;48.860;9.198;2024-01-16T00:55:38;0.20;99.90
8595;DHT22;4335;48.860;9.198;2024-01-16T00:58:08;0.20;99.90
8595;DHT22;4335;48.860;9.198;2024-01-16T01:00:36;0.20;99.90
8595;DHT22;4335;48.860;9.198;2024-01-16T01:03:06;0.20;99.90
8595;DHT22;4335;48.860;9.198;2024-01-16T01:05:35;0.10;99.90
8595;DHT22;4335;48.860;9.198;2024-01-16T01:08:02;0.10;99.90
8595;DHT22;4335;48.860;9.198;2024-01-16T01:10:30;0.10;99.90
8595;DHT22;4335;48.860;9.198;2024-01-16T01:12:57;0.10;99.90
8595;DHT22;4335;48.860;9.198;2024-01-16T01:15:24;0.10;99.90
8595;DHT22;4335;48.860;9.198;2024-01-16T01:17:57;0.10;99.90
8595;DHT22;4335;48.860;9.198;2024-01-16T01:20:24;0.10;99.90
8595;DHT22;4335;48.860;9.198;2024-01-16T01:23:03;0.10;99.90
8595;DHT22;4335;48.860;9.198;2024-01-16T01:25:30;0.10;99.90
8595;DHT22;4335;48.860;9.198;2024-01-16T01:27:57;0.10;99.90
8595;DHT22;4335;48.860;9.198;2024-01-16T01:30:28;0.20;99.90
8595;DHT22;4335;48.860;9.198;2024-01-16T01:32:55;0.20;99.90
8595;DHT22;4335;48.860;9.198;2024-01-16T01:35:23;0.20;99.90
8595;DHT22;4335;48.860;9.198;2024-01-16T01:37:50;0.20;99.90
8595;DHT22;4335;48.860;9.198;2024-01-16T01:40:22;0.10;99.90
8595;DHT22;4335;48.860;9.198;2024-01-16T01:42:49;0.10;99.90
8595;DHT22;4335;48.860;9.198;2024-01-16T01:45:20;0.10;99.90
8595;DHT22;4335;48.860;9.198;2024-01-16T01:47:50;0.10;99.90
8595;DHT22;4335;48.860;9.198;2024-01-16T01:50:18;0.10;99.90
8595;DHT22;4335;48.860;9.198;2024-01-16T01:52:45;0.00;99.90
8595;DHT22;4335;48.860;9.198;2024-01-16T01:55:27;0.00;99.90
8595;DHT22;4335;48.860;9.198;2024-01-16T01:57:54;0.00;99.90
8595;DHT22;4335;48.860;9.198;2024-01-16T02:00:28;0.00;99.90
8595;DHT22;4335;48.860;9.198;2024-01-16T02:03:01;-0.10;99.90
8595;DHT22;4335;48.860;9.198;2024-01-16T02:05:29;-0.10;99.90
8595;DHT22;4335;48.860;9.198;2024-01-16T02:07:58;-0.10;99.90
8595;DHT22;4335;48.860;9.198;2024-01-16T02:10:27;-0.10;99.90
8595;DHT22;4335;48.860;9.198;2024-01-16T02:12:57;-0.10;99.90
8595;DHT22;4335;48.860;9.198;2024-01-16T02:15:27;-0.10;99.90
8595;DHT22;4335;48.860;9.198;2024-01-16T02:17:58;-0.10;99.90
8595;DHT22;4335;48.860;9.198;2024-01-16T02:20:25;-0.10;99.90
8595;DHT22;4335;48.860;9.198;2024-01-16T02:23:01;-0.10;99.90
8595;DHT22;4335;48.860;9.198;2024-01-16T02:25:31;-0.10;99.90
8595;DHT22;4335;48.860;9.198;2024-01-16T02:28:02;-0.20;99.90
8595;DHT22;4335;48.860;9.198;2024-01-16T02:30:30;-0.20;99.90
8595;DHT22;4335;48.860;9.198;2024-01-16T02:33:03;-0.20;99.90
8595;DHT22;4335;48.860;9.198;2024-01-16T02:35:31;-0.20;99.90
8595;DHT22;4335;48.860;9.198;2024-01-16T02:37:58;-0.20;99.90
8595;DHT22;4335;48.860;9.198;2024-01-16T02:40:30;-0.30;99.90
8595;DHT22;4335;48.860;9.198;2024-01-16T02:42:58;-0.30;99.90
8595;DHT22;4335;48.860;9.198;2024-01-16T02:45:28;-0.30;99.90
8595;DHT22;4335;48.860;9.198;2024-01-16T02:48:08;-0.30;99.90
8595;DHT22;4335;48.860;9.198;2024-01-16T02:50:41;-0.40;99.90
8595;DHT22;4335;48.860;9.198;2024-01-16T02:53:11;-0.40;99.90
8595;DHT22;4335;48.860;9.198;2024-01-16T02:55:43;-0.40;99.90
8595;DHT22;4335;48.860;9.198;2024-01-16T02:58:14;-0.40;99.90
8595;DHT22;4335;48.860;9.198;2024-01-16T03:00:41;-0.50;99.90
8595;DHT22;4335;48.860;9.198;2024-01-16T03:03:09;-0.50;99.90
8595;DHT22;4335;48.860;9.198;2024-01-16T03:05:39;-0.50;99.90
8595;DHT22;4335;48.860;9.198;2024-01-16T03:08:14;-0.60;99.90
8595;DHT22;4335;48.860;9.198;2024-01-16T03:10:43;-0.60;99.90
8595;DHT22;4335;48.860;9.198;2024-01-16T03:13:10;-0.60;99.90
8595;DHT22;4335;48.860;9.198;2024-01-16T03:15:39;-0.60;99.90
8595;DHT22;4335;48.860;9.198;2024-01-16T03:18:07;-0.60;99.90
8595;DHT22;4335;48.860;9.198;2024-01-16T03:20:34;-0.60;99.90
8595;DHT22;4335;48.860;9.198;2024-01-16T03:23:01;-0.70;99.90
8595;DHT22;4335;48.860;9.198;2024-01-16T03:25:32;-0.70;99.90
8595;DHT22;4335;48.860;9.198;2024-01-16T03:28:06;-0.70;99.90
8595;DHT22;4335;48.860;9.198;2024-01-16T03:30:39;-0.70;99.90
8595;DHT22;4335;48.860;9.198;2024-01-16T03:33:16;-0.70;99.90
8595;DHT22;4335;48.860;9.198;2024-01-16T03:35:44;-0.70;99.90
8595;DHT22;4335;48.860;9.198;2024-01-16T03:38:16;-0.70;99.90
8595;DHT22;4335;48.860;9.198;2024-01-16T03:40:43;-0.50;99.90
8595;DHT22;4335;48.860;9.198;2024-01-16T03:43:18;-0.60;99.90
8595;DHT22;4335;48.860;9.198;2024-01-16T03:46:04;-0.60;99.90
8595;DHT22;4335;48.860;9.198;2024-01-16T03:48:34;-0.70;99.90
8595;DHT22;4335;48.860;9.198;2024-01-16T03:51:01;-0.70;99.90
8595;DHT22;4335;48.860;9.198;2024-01-16T03:53:29;-0.70;99.90
8595;DHT22;4335;48.860;9.198;2024-01-16T03:55:57;-0.70;99.90
8595;DHT22;4335;48.860;9.198;2024-01-16T03:58:25;-0.70;99.90
8595;DHT22;4335;48.860;9.198;2024-01-16T04:00:53;-0.80;99.90
8595;DHT22;4335;48.860;9.198;2024-01-16T04:03:20;-0.80;99.90
8595;DHT22;4335;48.860;9.198;2024-01-16T04:05:51;-0.80;99.90
8595;DHT22;4335;48.860;9.198;2024-01-16T04:08:18;-0.90;99.90
8595;DHT22;4335;48.860;9.198;2024-01-16T04:10:50;-0.90;99.90
8595;DHT22;4335;48.860;9.198;2024-01-16T04:13:18;-0.90;99.90
8595;DHT22;4335;48.860;9.198;2024-01-16T04:15:47;-0.90;99.90
8595;DHT22;4335;48.860;9.198;2024-01-16T04:18:17;-0.90;99.90
8595;DHT22;4335;48.860;9.198;2024-01-16T04:20:50;-1.00;99.90
8595;DHT22;4335;48.860;9.198;2024-01-16T04:23:21;-1.00;99.90
8595;DHT22;4335;48.860;9.198;2024-01-16T04:25:54;-1.00;99.90
8595;DHT22;4335;48.860;9.198;2024-01-16T04:28:34;-1.00;99.90
8595;DHT22;4335;48.860;9.198;2024-01-16T04:31:06;-1.00;99.90
8595;DHT22;4335;48.860;9.198;2024-01-16T04:33:34;-1.10;99.90
8595;DHT22;4335;48.860;9.198;2024-01-16T04:36:09;-1.10;99.90
8595;DHT22;4335;48.860;9.198;2024-01-16T04:38:39;-1.10;99.90
8595;DHT22;4335;48.860;9.198;2024-01-16T04:41:10;-1.10;99.90
8595;DHT22;4335;48.860;9.198;2024-01-16T04:43:41;-1.10;99.90
8595;DHT22;4335;48.860;9.198;2024-01-16T04:46:19;-1.10;99.90
8595;DHT22;4335;48.860;9.198;2024-01-16T04:48:53;-1.10;99.90
8595;DHT22;4335;48.860;9.198;2024-01-16T04:51:26;-1.10;99.90
8595;DHT22;4335;48.860;9.198;2024-01-16T04:53:54;-1.10;99.90
8595;DHT22;4335;48.860;9.198;2024-01-16T04:56:30;-1.10;99.90
8595;DHT22;4335;48.860;9.198;2024-01-16T04:59:00;-1.20;99.90
8595;DHT22;4335;48.860;9.198;2024-01-16T05:01:32;-1.20;99.90
8595;DHT22;4335;48.860;9.198;2024-01-16T05:04:02;-1.20;99.90
8595;DHT22;4335;48.860;9.198;2024-01-16T05:06:31;-1.20;99.90
8595;DHT22;4335;48.860;9.198;2024-01-16T05:08:58;-1.20;99.90
8595;DHT22;4335;48.860;9.198;2024-01-16T05:11:25;-1.20;99.90
8595;DHT22;4335;48.860;9.198;2024-01-16T05:13:53;-1.30;99.90
8595;DHT22;4335;48.860;9.198;2024-01-16T05:16:29;-1.30;99.90
8595;DHT22;4335;48.860;9.198;2024-01-16T05:18:58;-1.30;99.90
8595;DHT22;4335;48.860;9.198;2024-01-16T05:21:28;-1.30;99.90
8595;DHT22;4335;48.860;9.198;2024-01-16T05:23:56;-1.30;99.90
8595;DHT22;4335;48.860;9.198;2024-01-16T05:26:26;-1.30;99.90
8595;DHT22;4335;48.860;9.198;2024-01-16T05:28:53;-1.30;99.90
8595;DHT22;4335;48.860;9.198;2024-01-16T05:31:24;-1.30;99.90
8595;DHT22;4335;48.860;9.198;2024-01-16T05:33:54;-1.40;99.90
8595;DHT22;4335;48.860;9.198;2024-01-16T05:36:29;-1.40;99.90
8595;DHT22;4335;48.860;9.198;2024-01-16T05:38:57;-1.40;99.90
8595;DHT22;4335;48.860;9.198;2024-01-16T05:41:27;-1.40;99.90
8595;DHT22;4335;48.860;9.198;2024-01-16T05:43:59;-1.40;99.90
8595;DHT22;4335;48.860;9.198;2024-01-16T05:46:26;-1.40;99.90
8595;DHT22;4335;48.860;9.198;2024-01-16T05:48:54;-1.40;99.90
8595;DHT22;4335;48.860;9.198;2024-01-16T05:51:24;-1.40;99.90
8595;DHT22;4335;48.860;9.198;2024-01-16T05:53:56;-1.40;99.90
8595;DHT22;4335;48.860;9.198;2024-01-16T05:56:30;-1.40;99.90
8595;DHT22;4335;48.860;9.198;2024-01-16T05:58:59;-1.40;99.90
8595;DHT22;4335;48.860;9.198;2024-01-16T06:01:27;-1.30;99.90
8595;DHT22;4335;48.860;9.198;2024-01-16T06:03:54;-1.30;99.90
8595;DHT22;4335;48.860;9.198;2024-01-16T06:06:25;-1.20;99.90
8595;DHT22;4335;48.860;9.198;2024-01-16T06:08:52;-1.10;99.90
8595;DHT22;4335;48.860;9.198;2024-01-16T06:11:29;-1.00;99.90
8595;DHT22;4335;48.860;9.198;2024-01-16T06:13:57;-0.90;99.90
8595;DHT22;4335;48.860;9.198;2024-01-16T06:16:31;-0.80;99.90
8595;DHT22;4335;48.860;9.198;2024-01-16T06:19:04;-0.70;99.90
8595;DHT22;4335;48.860;9.198;2024-01-16T06:21:33;-0.60;99.90
8595;DHT22;4335;48.860;9.198;2024-01-16T06:24:01;-0.60;99.90
8595;DHT22;4335;48.860;9.198;2024-01-16T06:26:30;-0.50;99.90
8595;DHT22;4335;48.860;9.198;2024-01-16T06:28:57;-0.40;99.90
8595;DHT22;4335;48.860;9.198;2024-01-16T06:31:24;-0.50;99.90
8595;DHT22;4335;48.860;9.198;2024-01-16T06:33:52;-0.50;99.90
8595;DHT22;4335;48.860;9.198;2024-01-16T06:36:20;-0.60;99.90
8595;DHT22;4335;48.860;9.198;2024-01-16T06:38:50;-0.60;99.90
8595;DHT22;4335;48.860;9.198;2024-01-16T06:41:20;-0.70;99.90
8595;DHT22;4335;48.860;9.198;2024-01-16T06:43:54;-0.80;99.90
8595;DHT22;4335;48.860;9.198;2024-01-16T06:46:22;-0.80;99.90
8595;DHT22;4335;48.860;9.198;2024-01-16T06:48:54;-0.80;99.90
8595;DHT22;4335;48.860;9.198;2024-01-16T06:51:25;-0.90;99.90
8595;DHT22;4335;48.860;9.198;2024-01-16T06:53:52;-0.90;99.90
8595;DHT22;4335;48.860;9.198;2024-01-16T06:56:31;-1.00;99.90
8595;DHT22;4335;48.860;9.198;2024-01-16T06:59:03;-1.00;99.90
8595;DHT22;4335;48.860;9.198;2024-01-16T07:01:36;-1.00;99.90
8595;DHT22;4335;48.860;9.198;2024-01-16T07:04:04;-1.00;99.90
8595;DHT22;4335;48.860;9.198;2024-01-16T07:06:32;-1.10;99.90
8595;DHT22;4335;48.860;9.198;2024-01-16T07:08:59;-1.10;99.90
8595;DHT22;4335;48.860;9.198;2024-01-16T07:11:26;-1.10;99.90
8595;DHT22;4335;48.860;9.198;2024-01-16T07:13:57;-1.10;99.90
8595;DHT22;4335;48.860;9.198;2024-01-16T07:16:33;-1.10;99.90
8595;DHT22;4335;48.860;9.198;2024-01-16T07:19:06;-1.10;99.90
8595;DHT22;4335;48.860;9.198;2024-01-16T07:21:37;-1.10;99.90
8595;DHT22;4335;48.860;9.198;2024-01-16T07:24:05;-1.20;99.90
8595;DHT22;4335;48.860;9.198;2024-01-16T07:26:33;-1.10;99.90
8595;DHT22;4335;48.860;9.198;2024-01-16T07:29:06;-1.10;99.90
8595;DHT22;4335;48.860;9.198;2024-01-16T07:31:34;-1.10;99.90
8595;DHT22;4335;48.860;9.198;2024-01-16T07:34:05;-1.10;99.90
8595;DHT22;4335;48.860;9.198;2024-01-16T07:36:32;-1.00;99.90
8595;DHT22;4335;48.860;9.198;2024-01-16T07:39:02;-1.00;99.90
8595;DHT22;4335;48.860;9.198;2024-01-16T07:41:35;-1.00;99.90
8595;DHT22;4335;48.860;9.198;2024-01-16T07:44:09;-1.00;99.90
8595;DHT22;4335;48.860;9.198;2024-01-16T07:46:41;-1.00;99.90
8595;DHT22;4335;48.860;9.198;2024-01-16T07:49:08;-0.90;99.90
8595;DHT22;4335;48.860;9.198;2024-01-16T07:51:39;-0.90;99.90
8595;DHT22;4335;48.860;9.198;2024-01-16T07:54:07;-0.90;99.90
8595;DHT22;4335;48.860;9.198;2024-01-16T07:56:40;-0.90;99.90
8595;DHT22;4335;48.860;9.198;2024-01-16T07:59:07;-0.80;99.90
8595;DHT22;4335;48.860;9.198;2024-01-16T08:01:37;-0.80;99.90
8595;DHT22;4335;48.860;9.198;2024-01-16T08:04:06;-0.70;99.90
8595;DHT22;4335;48.860;9.198;2024-01-16T08:06:33;-0.70;99.90
8595;DHT22;4335;48.860;9.198;2024-01-16T08:09:04;-0.70;99.90
8595;DHT22;4335;48.860;9.198;2024-01-16T08:11:35;-0.60;99.90
8595;DHT22;4335;48.860;9.198;2024-01-16T08:14:05;-0.60;99.90
8595;DHT22;4335;48.860;9.198;2024-01-16T08:16:33;-0.50;99.90
8595;DHT22;4335;48.860;9.198;2024-01-16T08:19:06;-0.40;99.90
8595;DHT22;4335;48.860;9.198;2024-01-16T08:21:37;-0.50;99.90
8595;DHT22;4335;48.860;9.198;2024-01-16T08:24:05;-0.30;99.90
8595;DHT22;4335;48.860;9.198;2024-01-16T08:26:38;-0.20;99.90
8595;DHT22;4335;48.860;9.198;2024-01-16T08:29:05;-0.20;99.90
8595;DHT22;4335;48.860;9.198;2024-01-16T08:31:33;-0.10;99.90
8595;DHT22;4335;48.860;9.198;2024-01-16T08:34:04;0.00;99.90
8595;DHT22;4335;48.860;9.198;2024-01-16T08:36:32;0.10;99.90
8595;DHT22;4335;48.860;9.198;2024-01-16T08:39:03;0.10;99.90
8595;DHT22;4335;48.860;9.198;2024-01-16T08:41:31;0.10;99.90
8595;DHT22;4335;48.860;9.198;2024-01-16T08:44:02;0.20;99.90
8595;DHT22;4335;48.860;9.198;2024-01-16T08:46:32;0.30;99.90
8595;DHT22;4335;48.860;9.198;2024-01-16T08:48:59;0.30;99.90
8595;DHT22;4335;48.860;9.198;2024-01-16T08:51:27;0.40;99.90
8595;DHT22;4335;48.860;9.198;2024-01-16T08:53:56;0.40;99.90
8595;DHT22;4335;48.860;9.198;2024-01-16T08:56:23;0.50;99.90
8595;DHT22;4335;48.860;9.198;2024-01-16T08:58:54;0.60;99.90
8595;DHT22;4335;48.860;9.198;2024-01-16T09:01:21;0.60;99.90
8595;DHT22;4335;48.860;9.198;2024-01-16T09:03:52;0.70;99.90
8595;DHT22;4335;48.860;9.198;2024-01-16T09:06:25;0.80;99.90
8595;DHT22;4335;48.860;9.198;2024-01-16T09:08:53;0.90;99.90
8595;DHT22;4335;48.860;9.198;2024-01-16T09:11:21;1.00;99.90
8595;DHT22;4335;48.860;9.198;2024-01-16T09:13:49;1.10;99.90
8595;DHT22;4335;48.860;9.198;2024-01-16T09:16:17;1.10;99.90
8595;DHT22;4335;48.860;9.198;2024-01-16T09:18:44;1.30;99.90
8595;DHT22;4335;48.860;9.198;2024-01-16T09:21:27;1.30;99.90
8595;DHT22;4335;48.860;9.198;2024-01-16T09:23:58;1.40;99.90
8595;DHT22;4335;48.860;9.198;2024-01-16T09:26:29;1.50;99.90
8595;DHT22;4335;48.860;9.198;2024-01-16T09:28:57;1.50;99.90
8595;DHT22;4335;48.860;9.198;2024-01-16T09:31:28;1.50;99.90
8595;DHT22;4335;48.860;9.198;2024-01-16T09:33:58;1.50;99.90
8595;DHT22;4335;48.860;9.198;2024-01-16T09:36:26;1.60;99.90
8595;DHT22;4335;48.860;9.198;2024-01-16T09:38:53;1.70;99.90
8595;DHT22;4335;48.860;9.198;2024-01-16T09:41:21;1.70;99.90
8595;DHT22;4335;48.860;9.198;2024-01-16T09:43:53;1.80;99.90
8595;DHT22;4335;48.860;9.198;2024-01-16T09:46:22;1.80;99.90
8595;DHT22;4335;48.860;9.198;2024-01-16T09:49:01;1.90;99.90
8595;DHT22;4335;48.860;9.198;2024-01-16T09:51:32;2.00;99.90
8595;DHT22;4335;48.860;9.198;2024-01-16T09:53:59;2.00;99.90
8595;DHT22;4335;48.860;9.198;2024-01-16T09:56:41;2.10;99.90
8595;DHT22;4335;48.860;9.198;2024-01-16T09:59:23;2.20;99.90
8595;DHT22;4335;48.860;9.198;2024-01-16T10:01:52;2.30;99.90
8595;DHT22;4335;48.860;9.198;2024-01-16T10:04:27;2.30;99.90
8595;DHT22;4335;48.860;9.198;2024-01-16T10:06:56;2.40;99.90
8595;DHT22;4335;48.860;9.198;2024-01-16T10:09:27;2.50;99.90
8595;DHT22;4335;48.860;9.198;2024-01-16T10:11:55;2.60;99.90
8595;DHT22;4335;48.860;9.198;2024-01-16T10:14:30;2.70;99.90
8595;DHT22;4335;48.860;9.198;2024-01-16T10:16:58;2.70;99.90
8595;DHT22;4335;48.860;9.198;2024-01-16T10:19:29;2.80;99.90
8595;DHT22;4335;48.860;9.198;2024-01-16T10:22:04;2.80;99.90
8595;DHT22;4335;48.860;9.198;2024-01-16T10:24:36;2.90;99.90
8595;DHT22;4335;48.860;9.198;2024-01-16T10:27:03;3.00;99.90
8595;DHT22;4335;48.860;9.198;2024-01-16T10:29:33;2.90;99.90
8595;DHT22;4335;48.860;9.198;2024-01-16T10:32:01;2.90;99.90
8595;DHT22;4335;48.860;9.198;2024-01-16T10:34:32;2.90;99.90
8595;DHT22;4335;48.860;9.198;2024-01-16T10:36:59;3.00;99.90
8595;DHT22;4335;48.860;9.198;2024-01-16T10:39:30;3.00;99.90
8595;DHT22;4335;48.860;9.198;2024-01-16T10:41:57;3.00;99.90
8595;DHT22;4335;48.860;9.198;2024-01-16T10:44:25;3.00;99.90
8595;DHT22;4335;48.860;9.198;2024-01-16T10:47:09;3.00;99.90
8595;DHT22;4335;48.860;9.198;2024-01-16T10:49:43;3.00;99.90
8595;DHT22;4335;48.860;9.198;2024-01-16T10:52:11;3.00;99.90
8595;DHT22;4335;48.860;9.198;2024-01-16T10:54:47;3.00;99.90
8595;DHT22;4335;48.860;9.198;2024-01-16T10:57:16;3.10;99.90
8595;DHT22;4335;48.860;9.198;2024-01-16T10:59:50;3.20;99.90
8595;DHT22;4335;48.860;9.198;2024-01-16T11:02:24;3.40;99.90
8595;DHT22;4335;48.860;9.198;2024-01-16T11:04:57;3.50;99.90
8595;DHT22;4335;48.860;9.198;2024-01-16T11:07:28;3.70;99.90
8595;DHT22;4335;48.860;9.198;2024-01-16T11:09:56;3.60;99.90
8595;DHT22;4335;48.860;9.198;2024-01-16T11:12:24;3.60;99.90
8595;DHT22;4335;48.860;9.198;2024-01-16T11:14:52;3.50;99.90
8595;DHT22;4335;48.860;9.198;2024-01-16T11:17:24;3.30;99.90
8595;DHT22;4335;48.860;9.198;2024-01-16T11:19:52;3.20;99.90
8595;DHT22;4335;48.860;9.198;2024-01-16T11:22:19;3.20;99.90
8595;DHT22;4335;48.860;9.198;2024-01-16T11:25:10;3.10;99.90
8595;DHT22;4335;48.860;9.198;2024-01-16T11:27:42;3.10;99.90
8595;DHT22;4335;48.860;9.198;2024-01-16T11:30:11;3.00;99.90
8595;DHT22;4335;48.860;9.198;2024-01-16T11:32:49;2.90;99.90
8595;DHT22;4335;48.860;9.198;2024-01-16T11:35:31;2.80;99.90
8595;DHT22;4335;48.860;9.198;2024-01-16T11:38:04;2.60;99.90
8595;DHT22;4335;48.860;9.198;2024-01-16T11:40:33;2.60;99.90
8595;DHT22;4335;48.860;9.198;2024-01-16T11:43:36;2.50;99.90
8595;DHT22;4335;48.860;9.198;2024-01-16T11:46:05;2.50;99.90
8595;DHT22;4335;48.860;9.198;2024-01-16T11:48:34;2.40;99.90
8595;DHT22;4335;48.860;9.198;2024-01-16T11:51:23;2.40;99.90
8595;DHT22;4335;48.860;9.198;2024-01-16T11:53:57;2.50;99.90
8595;DHT22;4335;48.860;9.198;2024-01-16T11:57:01;2.50;99.90
8595;DHT22;4335;48.860;9.198;2024-01-16T11:59:58;2.60;99.90
8595;DHT22;4335;48.860;9.198;2024-01-16T12:02:42;2.70;99.90
8595;DHT22;4335;48.860;9.198;2024-01-16T12:05:16;2.70;99.90
8595;DHT22;4335;48.860;9.198;2024-01-16T12:07:46;2.90;99.90
8595;DHT22;4335;48.860;9.198;2024-01-16T12:10:17;3.00;99.90
8595;DHT22;4335;48.860;9.198;2024-01-16T12:12:48;3.00;99.90
8595;DHT22;4335;48.860;9.198;2024-01-16T12:15:17;3.10;99.90
8595;DHT22;4335;48.860;9.198;2024-01-16T12:17:55;3.10;99.90
8595;DHT22;4335;48.860;9.198;2024-01-16T12:20:26;3.20;99.90
8595;DHT22;4335;48.860;9.198;2024-01-16T12:22:58;3.20;99.90
8595;DHT22;4335;48.860;9.198;2024-01-16T12:25:35;3.10;99.90
8595;DHT22;4335;48.860;9.198;2024-01-16T12:28:04;3.00;99.90
8595;DHT22;4335;48.860;9.198;2024-01-16T12:30:33;2.90;99.90
8595;DHT22;4335;48.860;9.198;2024-01-16T12:33:05;2.90;99.90
8595;DHT22;4335;48.860;9.198;2024-01-16T12:35:35;2.70;99.90
8595;DHT22;4335;48.860;9.198;2024-01-16T12:38:04;2.70;99.90
8595;DHT22;4335;48.860;9.198;2024-01-16T12:40:33;2.60;99.90
8595;DHT22;4335;48.860;9.198;2024-01-16T12:43:08;2.70;99.90
8595;DHT22;4335;48.860;9.198;2024-01-16T12:45:39;2.60;99.90
8595;DHT22;4335;48.860;9.198;2024-01-16T12:48:09;2.70;99.90
8595;DHT22;4335;48.860;9.198;2024-01-16T12:50:38;2.70;99.90
8595;DHT22;4335;48.860;9.198;2024-01-16T12:53:11;2.70;99.90
8595;DHT22;4335;48.860;9.198;2024-01-16T12:55:40;2.70;99.90
8595;DHT22;4335;48.860;9.198;2024-01-16T12:58:14;2.90;99.90
8595;DHT22;4335;48.860;9.198;2024-01-16T13:00:42;2.90;99.90
8595;DHT22;4335;48.860;9.198;2024-01-16T13:03:15;3.00;99.90
8595;DHT22;4335;48.860;9.198;2024-01-16T13:05:46;3.10;99.90
8595;DHT22;4335;48.860;9.198;2024-01-16T13:08:20;3.10;99.90
8595;DHT22;4335;48.860;9.198;2024-01-16T13:11:04;3.10;99.90
8595;DHT22;4335;48.860;9.198;2024-01-16T13:13:32;3.10;99.90
8595;DHT22;4335;48.860;9.198;2024-01-16T13:16:00;3.10;99.90
8595;DHT22;4335;48.860;9.198;2024-01-16T13:18:28;3.10;99.90
8595;DHT22;4335;48.860;9.198;2024-01-16T13:20:58;3.20;99.90
8595;DHT22;4335;48.860;9.198;2024-01-16T13:23:27;3.20;99.90
8595;DHT22;4335;48.860;9.198;2024-01-16T13:25:55;3.30;99.90
8595;DHT22;4335;48.860;9.198;2024-01-16T13:28:31;3.40;99.90
8595;DHT22;4335;48.860;9.198;2024-01-16T13:31:04;3.40;99.90
8595;DHT22;4335;48.860;9.198;2024-01-16T13:33:36;3.60;99.90
8595;DHT22;4335;48.860;9.198;2024-01-16T13:36:05;3.70;99.90
8595;DHT22;4335;48.860;9.198;2024-01-16T13:38:33;3.80;99.90
8595;DHT22;4335;48.860;9.198;2024-01-16T13:41:01;3.80;99.90
8595;DHT22;4335;48.860;9.198;2024-01-16T13:43:31;3.70;99.90
8595;DHT22;4335;48.860;9.198;2024-01-16T13:46:17;3.70;99.90
8595;DHT22;4335;48.860;9.198;2024-01-16T13:48:48;3.70;99.90
8595;DHT22;4335;48.860;9.198;2024-01-16T13:51:20;3.70;99.90
8595;DHT22;4335;48.860;9.198;2024-01-16T13:53:47;3.50;99.90
8595;DHT22;4335;48.860;9.198;2024-01-16T13:56:20;3.50;99.90
8595;DHT22;4335;48.860;9.198;2024-01-16T13:58:50;3.60;99.90
8595;DHT22;4335;48.860;9.198;2024-01-16T14:01:17;3.70;99.90
8595;DHT22;4335;48.860;9.198;2024-01-16T14:03:45;3.90;99.90
8595;DHT22;4335;48.860;9.198;2024-01-16T14:06:14;3.90;99.90
8595;DHT22;4335;48.860;9.198;2024-01-16T14:08:44;3.90;99.90
8595;DHT22;4335;48.860;9.198;2024-01-16T14:11:11;3.90;99.90
8595;DHT22;4335;48.860;9.198;2024-01-16T14:13:38;3.80;99.90
8595;DHT22;4335;48.860;9.198;2024-01-16T14:16:10;3.80;99.90
8595;DHT22;4335;48.860;9.198;2024-01-16T14:18:43;3.60;99.90
8595;DHT22;4335;48.860;9.198;2024-01-16T14:21:11;3.50;99.90
8595;DHT22;4335;48.860;9.198;2024-01-16T14:23:38;3.50;99.90
8595;DHT22;4335;48.860;9.198;2024-01-16T14:26:07;3.30;99.90
8595;DHT22;4335;48.860;9.198;2024-01-16T14:28:37;3.30;99.90
8595;DHT22;4335;48.860;9.198;2024-01-16T14:31:05;3.30;99.90
8595;DHT22;4335;48.860;9.198;2024-01-16T14:33:32;3.20;99.90
8595;DHT22;4335;48.860;9.198;2024-01-16T14:36:03;3.10;99.90
8595;DHT22;4335;48.860;9.198;2024-01-16T14:38:33;3.00;99.90
8595;DHT22;4335;48.860;9.198;2024-01-16T14:41:01;3.00;99.90
8595;DHT22;4335;48.860;9.198;2024-01-16T14:43:30;2.80;99.90
8595;DHT22;4335;48.860;9.198;2024-01-16T14:45:58;2.80;99.90
8595;DHT22;4335;48.860;9.198;2024-01-16T14:48:25;2.70;99.90
8595;DHT22;4335;48.860;9.198;2024-01-16T14:50:53;2.60;99.90
8595;DHT22;4335;48.860;9.198;2024-01-16T14:53:21;2.70;99.90
8595;DHT22;4335;48.860;9.198;2024-01-16T14:55:52;2.60;99.90
8595;DHT22;4335;48.860;9.198;2024-01-16T14:58:19;2.60;99.90
8595;DHT22;4335;48.860;9.198;2024-01-16T15:00:51;2.60;99.90
8595;DHT22;4335;48.860;9.198;2024-01-16T15:03:19;2.60;99.90
8595;DHT22;4335;48.860;9.198;2024-01-16T15:05:50;2.50;99.90
8595;DHT22;4335;48.860;9.198;2024-01-16T15:08:19;2.50;99.90
8595;DHT22;4335;48.860;9.198;2024-01-16T15:10:46;2.50;99.90
8595;DHT22;4335;48.860;9.198;2024-01-16T15:13:14;2.40;99.90
8595;DHT22;4335;48.860;9.198;2024-01-16T15:15:54;2.40;99.90
8595;DHT22;4335;48.860;9.198;2024-01-16T15:18:27;2.40;99.90
8595;DHT22;4335;48.860;9.198;2024-01-16T15:20:55;2.30;99.90
8595;DHT22;4335;48.860;9.198;2024-01-16T15:23:22;2.30;99.90
8595;DHT22;4335;48.860;9.198;2024-01-16T15:25:51;2.20;99.90
8595;DHT22;4335;48.860;9.198;2024-01-16T15:28:21;2.20;99.90
8595;DHT22;4335;48.860;9.198;2024-01-16T15:30:53;2.20;99.90
8595;DHT22;4335;48.860;9.198;2024-01-16T15:33:20;2.10;99.90
8595;DHT22;4335;48.860;9.198;2024-01-16T15:35:47;2.00;99.90
8595;DHT22;4335;48.860;9.198;2024-01-16T15:38:14;2.00;99.90
8595;DHT22;4335;48.860;9.198;2024-01-16T15:40:42;1.90;99.90
8595;DHT22;4335;48.860;9.198;2024-01-16T15:43:12;1.80;99.90
8595;DHT22;4335;48.860;9.198;2024-01-16T15:45:46;1.80;99.90
8595;DHT22;4335;48.860;9.198;2024-01-16T15:48:23;1.80;99.90
8595;DHT22;4335;48.860;9.198;2024-01-16T15:51:07;1.90;99.90
8595;DHT22;4335;48.860;9.198;2024-01-16T15:53:34;1.90;99.90
8595;DHT22;4335;48.860;9.198;2024-01-16T15:56:05;1.90;99.90
8595;DHT22;4335;48.860;9.198;2024-01-16T15:58:33;1.90;99.90
8595;DHT22;4335;48.860;9.198;2024-01-16T16:01:00;1.90;99.90
8595;DHT22;4335;48.860;9.198;2024-01-16T16:03:29;1.90;99.90
8595;DHT22;4335;48.860;9.198;2024-01-16T16:06:00;1.90;99.90
8595;DHT22;4335;48.860;9.198;2024-01-16T16:08:30;1.80;99.90
8595;DHT22;4335;48.860;9.198;2024-01-16T16:11:01;1.70;99.90
8595;DHT22;4335;48.860;9.198;2024-01-16T16:13:31;1.70;99.90
8595;DHT22;4335;48.860;9.198;2024-01-16T16:16:05;1.60;99.90
8595;DHT22;4335;48.860;9.198;2024-01-16T16:18:41;1.50;99.90
8595;DHT22;4335;48.860;9.198;2024-01-16T16:21:15;1.40;99.90
8595;DHT22;4335;48.860;9.198;2024-01-16T16:23:42;1.30;99.90
8595;DHT22;4335;48.860;9.198;2024-01-16T16:26:11;1.20;99.90
8595;DHT22;4335;48.860;9.198;2024-01-16T16:28:38;1.20;99.90
8595;DHT22;4335;48.860;9.198;2024-01-16T16:31:08;1.10;99.90
8595;DHT22;4335;48.860;9.198;2024-01-16T16:33:39;1.10;99.90